AAL2949 KORD-KRDU
Flight info
| Callsign | AAL2949 |
|---|---|
| Flight time | N/A |
| Altitude | 35000 |
| Route | EARND ELANR EMMLY ETAME EMEGE FLM FRIKY ALDAN4 |
| Aircraft | A319/M-SDE3FGHIRWY/LB1 |
Departure
| Time | 2026-05-04 06:20 |
|---|---|
| Airport | Chicago O'Hare International Airport (KORD) |
Arrival
| Time | N/A |
|---|---|
| Airport | Raleigh-Durham International Airport (KRDU) |
| Time | Latitude | Longitude | Altitude | Speed | Heading |
|---|---|---|---|---|---|
| 2026-05-04 05:51 | 41.97343 | -87.90288 | 670 ft | 0 kts | 258° |
| 2026-05-04 06:07 | 41.97344 | -87.90287 | 670 ft | 2 kts | 257° |
| 2026-05-04 06:07 | 41.97348 | -87.90265 | 668 ft | 2 kts | 255° |
| 2026-05-04 06:07 | 41.97353 | -87.90244 | 668 ft | 2 kts | 245° |
| 2026-05-04 06:07 | 41.97361 | -87.90225 | 670 ft | 2 kts | 224° |
| 2026-05-04 06:08 | 41.97375 | -87.90213 | 670 ft | 2 kts | 189° |
| 2026-05-04 06:08 | 41.97387 | -87.90211 | 669 ft | 1 kts | 182° |
| 2026-05-04 06:08 | 41.97389 | -87.90211 | 669 ft | 0 kts | 183° |
| 2026-05-04 06:11 | 41.97375 | -87.90210 | 671 ft | 5 kts | 179° |
| 2026-05-04 06:13 | 41.97195 | -87.89877 | 669 ft | 10 kts | 140° |
| 2026-05-04 06:14 | 41.97196 | -87.89410 | 670 ft | 11 kts | 88° |
| 2026-05-04 06:14 | 41.97195 | -87.89299 | 670 ft | 12 kts | 90° |
| 2026-05-04 06:15 | 41.97195 | -87.89179 | 670 ft | 13 kts | 89° |
| 2026-05-04 06:15 | 41.97195 | -87.89060 | 670 ft | 10 kts | 90° |
| 2026-05-04 06:15 | 41.97196 | -87.88962 | 670 ft | 11 kts | 89° |
| 2026-05-04 06:15 | 41.97195 | -87.88855 | 670 ft | 12 kts | 89° |
| 2026-05-04 06:16 | 41.97197 | -87.88739 | 670 ft | 13 kts | 89° |
| 2026-05-04 06:16 | 41.97196 | -87.88615 | 670 ft | 14 kts | 90° |
| 2026-05-04 06:16 | 41.97189 | -87.88485 | 668 ft | 14 kts | 115° |
| 2026-05-04 06:16 | 41.97109 | -87.88440 | 670 ft | 13 kts | 178° |
| 2026-05-04 06:17 | 41.97041 | -87.88408 | 668 ft | 9 kts | 92° |
| 2026-05-04 06:17 | 41.97045 | -87.88318 | 669 ft | 10 kts | 88° |
| 2026-05-04 06:17 | 41.97045 | -87.88226 | 670 ft | 10 kts | 90° |
| 2026-05-04 06:17 | 41.97045 | -87.88135 | 670 ft | 7 kts | 90° |
| 2026-05-04 06:18 | 41.97045 | -87.88128 | 670 ft | 0 kts | 90° |
| 2026-05-04 06:20 | 41.95778 | -87.89416 | 752 ft | 150 kts | 222° |
| 2026-05-04 06:20 | 41.95020 | -87.90299 | 1519 ft | 139 kts | 224° |
| 2026-05-04 06:21 | 41.90630 | -87.92351 | 3134 ft | 234 kts | 167° |
| 2026-05-04 06:21 | 41.89053 | -87.91413 | 3568 ft | 263 kts | 154° |
| 2026-05-04 06:22 | 41.87416 | -87.90080 | 4166 ft | 283 kts | 150° |
| 2026-05-04 06:22 | 41.85744 | -87.88620 | 5085 ft | 288 kts | 150° |
| 2026-05-04 06:25 | 41.59671 | -87.69509 | 14770 ft | 376 kts | 155° |
| 2026-05-04 06:25 | 41.57348 | -87.67842 | 15431 ft | 381 kts | 155° |
| 2026-05-04 06:26 | 41.54998 | -87.66162 | 16086 ft | 385 kts | 155° |
| 2026-05-04 06:26 | 41.52625 | -87.64464 | 16733 ft | 389 kts | 155° |
| 2026-05-04 06:26 | 41.50222 | -87.62743 | 17380 ft | 394 kts | 155° |
| 2026-05-04 06:26 | 41.47798 | -87.61005 | 18013 ft | 398 kts | 155° |
| 2026-05-04 06:27 | 41.37288 | -87.56300 | 20258 ft | 405 kts | 176° |
| 2026-05-04 06:28 | 41.34481 | -87.55822 | 20820 ft | 409 kts | 176° |
| 2026-05-04 06:28 | 41.31648 | -87.55338 | 21375 ft | 412 kts | 176° |
| 2026-05-04 06:28 | 41.28790 | -87.54846 | 21921 ft | 416 kts | 176° |
| 2026-05-04 06:28 | 41.25903 | -87.54346 | 22451 ft | 420 kts | 175° |
| 2026-05-04 06:29 | 41.22990 | -87.53840 | 22978 ft | 424 kts | 175° |
| 2026-05-04 06:29 | 41.20056 | -87.53326 | 23473 ft | 428 kts | 175° |
| 2026-05-04 06:29 | 41.17104 | -87.52692 | 23891 ft | 432 kts | 173° |
| 2026-05-04 06:29 | 41.14102 | -87.51916 | 24326 ft | 435 kts | 171° |
| 2026-05-04 06:30 | 41.11132 | -87.51068 | 24731 ft | 439 kts | 170° |
| 2026-05-04 06:30 | 41.08136 | -87.50190 | 25141 ft | 441 kts | 170° |
| 2026-05-04 06:30 | 41.05129 | -87.49321 | 25548 ft | 444 kts | 171° |
| 2026-05-04 06:30 | 41.02097 | -87.48473 | 25940 ft | 447 kts | 171° |
| 2026-05-04 06:31 | 40.99044 | -87.47644 | 26338 ft | 449 kts | 172° |
| 2026-05-04 06:31 | 40.95967 | -87.46827 | 26733 ft | 452 kts | 172° |
| 2026-05-04 06:31 | 40.92874 | -87.46012 | 27123 ft | 455 kts | 172° |
| 2026-05-04 06:31 | 40.89762 | -87.45194 | 27503 ft | 458 kts | 172° |
| 2026-05-04 06:32 | 40.86628 | -87.44366 | 27881 ft | 460 kts | 172° |
| 2026-05-04 06:33 | 40.64255 | -87.38412 | 30282 ft | 476 kts | 172° |
| 2026-05-04 06:34 | 40.60999 | -87.37554 | 30568 ft | 478 kts | 172° |
| 2026-05-04 06:34 | 40.57731 | -87.36691 | 30855 ft | 480 kts | 173° |
| 2026-05-04 06:34 | 40.54451 | -87.35823 | 31165 ft | 480 kts | 173° |
| 2026-05-04 06:34 | 40.51181 | -87.34959 | 31580 ft | 479 kts | 173° |
| 2026-05-04 06:35 | 40.47927 | -87.33996 | 31981 ft | 480 kts | 167° |
| 2026-05-04 06:36 | 40.28044 | -87.17467 | 34597 ft | 486 kts | 148° |
| 2026-05-04 06:37 | 40.25287 | -87.14894 | 34841 ft | 487 kts | 148° |
| 2026-05-04 06:37 | 40.22530 | -87.12327 | 34879 ft | 485 kts | 148° |
| 2026-05-04 06:37 | 40.17047 | -87.07230 | 34886 ft | 483 kts | 148° |
| 2026-05-04 06:38 | 40.11561 | -87.02144 | 34888 ft | 484 kts | 148° |
| 2026-05-04 06:40 | 39.89324 | -86.82347 | 34878 ft | 483 kts | 153° |
| 2026-05-04 06:40 | 39.83583 | -86.77797 | 34881 ft | 483 kts | 153° |
| 2026-05-04 06:41 | 39.77869 | -86.73172 | 34900 ft | 484 kts | 152° |
| 2026-05-04 06:41 | 39.72447 | -86.67916 | 34899 ft | 491 kts | 138° |
| 2026-05-04 06:42 | 39.68294 | -86.60834 | 34896 ft | 497 kts | 120° |
| 2026-05-04 06:44 | 39.54627 | -86.29474 | 34904 ft | 500 kts | 121° |
| 2026-05-04 06:44 | 39.51188 | -86.21625 | 34893 ft | 501 kts | 121° |
| 2026-05-04 06:45 | 39.47742 | -86.13770 | 34896 ft | 502 kts | 121° |
| 2026-05-04 06:45 | 39.44282 | -86.05923 | 34897 ft | 502 kts | 121° |
| 2026-05-04 06:46 | 39.40812 | -85.98071 | 34906 ft | 503 kts | 121° |
| 2026-05-04 06:46 | 39.37335 | -85.90216 | 34911 ft | 504 kts | 121° |